ADDS METAR Data INFO
IDs: Format: Raw Decoded Include TAF

Data at: 0836 UTC 21 Oct 2017

KEKY 210756Z AUTO 11006KT 10SM CLR 16/09 A3017 RMK AO2 SLP229 T01610094
KEKY 210656Z AUTO 10006KT 10SM CLR 15/11 A3018 RMK AO2 SLP234 T01500106
KEKY 210556Z AUTO 10005KT 10SM CLR 14/11 A3018 RMK AO2 SLP235 T01440106 10189 20144 402560083 57002
KEKY 210456Z AUTO 10004KT 10SM CLR 17/11 A3018 RMK AO2 SLP234 T01670106
KEKY 210356Z AUTO 07003KT 10SM CLR 16/11 A3019 RMK AO2 SLP238 T01610106
KEKY 210256Z AUTO 09003KT 10SM CLR 16/10 A3019 RMK AO2 SLP239 T01610100 53005
KEKY 210156Z AUTO 09003KT 10SM CLR 17/10 A3018 RMK AO2 SLP237 T01670100
KEKY 210056Z AUTO 07004KT 10SM CLR 18/11 A3018 RMK AO2 SLP237 T01780106
KEKY 202356Z AUTO 07004KT 10SM CLR 18/13 A3017 RMK AO2 SLP237 T01780128 10256 20178 55000
KEKY 202256Z AUTO 09004KT 10SM CLR 20/12 A3017 RMK AO2 SLP235 T02000122
KEKY 202156Z AUTO 10003KT 10SM CLR 23/11 A3017 RMK AO2 SLP233 T02280106
KEKY 202056Z AUTO VRB04KT 10SM CLR 25/08 A3017 RMK AO2 SLP233 T02500083 56021
KEKY 201956Z AUTO VRB04KT 10SM CLR 25/12 A3018 RMK AO2 SLP233 T02500117
KEKY 201856Z AUTO VRB05KT 10SM CLR 24/11 A3020 RMK AO2 SLP241 T02440106
KEKY 201756Z AUTO 00000KT 10SM CLR 23/12 A3024 RMK AO2 SLP254 T02330117 10239 20106 58020
KEKY 201656Z AUTO VRB03KT 10SM CLR 22/13 A3028 RMK AO2 SLP267 T02220128
KEKY 201556Z AUTO 10008KT 10SM CLR 20/11 A3029 RMK AO2 SLP273 T02000106
KEKY 201456Z AUTO 08006KT 10SM CLR 18/10 A3030 RMK AO2 SLP277 T01780100 51010
KEKY 201356Z AUTO 09006KT 10SM CLR 16/10 A3029 RMK AO2 SLP273 T01610100
KEKY 201256Z AUTO 09005KT 10SM CLR 13/09 A3028 RMK AO2 SLP273 T01280089
KEKY 201156Z AUTO 08005KT 10SM CLR 10/08 A3027 RMK AO2 SLP269 T01000083 10133 20083 53007
KEKY 201056Z AUTO 00000KT 10SM CLR 09/08 A3026 RMK AO2 SLP267 T00940078
KEKY 200956Z AUTO 07004KT 10SM CLR 11/09 A3025 RMK AO2 SLP258 T01060089
KEKY 200856Z AUTO 08004KT 10SM CLR 10/09 A3025 RMK AO2 SLP259 T01000089 52002
KEKY 200756Z AUTO 07004KT 10SM CLR 12/09 A3025 RMK AO2 SLP257 T01220094
KEKY 200556Z AUTO 09004KT 10SM CLR 13/09 A3024 RMK AO2 SLP256 T01280094 10178 20111 402390106 58003
KEKY 200456Z AUTO 06003KT 10SM CLR 14/10 A3025 RMK AO2 SLP257 T01440100
KEKY 200356Z AUTO 07005KT 10SM CLR 16/10 A3025 RMK AO2 SLP259 T01560100
KEKY 200256Z AUTO 07005KT 10SM CLR 16/11 A3025 RMK AO2 SLP261 T01560111 53005
KEKY 200156Z AUTO 07005KT 10SM CLR 16/12 A3024 RMK AO2 SLP259 T01560117
KEKY 200056Z AUTO 07005KT 10SM CLR 17/12 A3024 RMK AO2 SLP258 T01670122
KEKY 192356Z AUTO 10004KT 10SM CLR 17/13 A3024 RMK AO2 SLP259 T01720128 10239 20172 53004
KEKY 192256Z AUTO 08003KT 10SM CLR 20/13 A3023 RMK AO2 SLP252 T02000133
KEKY 192156Z AUTO 00000KT 10SM CLR 24/12 A3022 RMK AO2 SLP249 T02390117
KEKY 192056Z AUTO 13004KT 10SM CLR 24/11 A3023 RMK AO2 SLP250 T02390111 56018